Terminal Aerodrome Forecast
Issued by NWS

Home | Current Version | Previous Version | Text Only | Print | Product List | Glossary On
Versions: 1 2 3 4 5 6 7 8 9 10 11 12 13 14 15 16 17 18 19 20 21 22
848
FTUS44 KLZK 310541
TAFHOT
TAF
KHOT 310541Z 3106/0106 VRB04KT P6SM SCT100 BKN250
     FM310900 VRB02KT P6SM SCT015
      TEMPO 3111/3114 4SM BR BKN015
     FM311500 17005KT P6SM SCT025 BKN250
     FM311800 20006KT P6SM VCTS SCT035CB BKN250=

USA.gov is the U.S. government's official web portal to all federal, state and local government web resources and services.